sensor_id;sensor_type;location;lat;lon;timestamp;temperature;humidity
75961;SHT30;64644;48.914;2.254;2024-01-10T00:01:20;1.92;62.39
75961;SHT30;64644;48.914;2.254;2024-01-10T00:03:51;1.90;62.31
75961;SHT30;64644;48.914;2.254;2024-01-10T00:06:16;1.90;62.28
75961;SHT30;64644;48.914;2.254;2024-01-10T00:08:42;1.89;62.26
75961;SHT30;64644;48.914;2.254;2024-01-10T00:11:07;1.90;62.23
75961;SHT30;64644;48.914;2.254;2024-01-10T00:13:33;1.87;62.20
75961;SHT30;64644;48.914;2.254;2024-01-10T00:15:58;1.87;62.32
75961;SHT30;64644;48.914;2.254;2024-01-10T00:18:24;1.87;62.36
75961;SHT30;64644;48.914;2.254;2024-01-10T00:20:51;1.89;62.32
75961;SHT30;64644;48.914;2.254;2024-01-10T00:23:19;1.89;62.35
75961;SHT30;64644;48.914;2.254;2024-01-10T00:25:44;1.89;62.35
75961;SHT30;64644;48.914;2.254;2024-01-10T00:28:10;1.86;62.30
75961;SHT30;64644;48.914;2.254;2024-01-10T00:30:36;1.83;62.24
75961;SHT30;64644;48.914;2.254;2024-01-10T00:33:01;1.80;62.32
75961;SHT30;64644;48.914;2.254;2024-01-10T00:35:26;1.76;62.40
75961;SHT30;64644;48.914;2.254;2024-01-10T00:37:52;1.77;62.49
75961;SHT30;64644;48.914;2.254;2024-01-10T00:40:17;1.79;62.54
75961;SHT30;64644;48.914;2.254;2024-01-10T00:42:42;1.79;62.60
75961;SHT30;64644;48.914;2.254;2024-01-10T00:45:08;1.80;62.61
75961;SHT30;64644;48.914;2.254;2024-01-10T00:47:33;1.80;62.70
75961;SHT30;64644;48.914;2.254;2024-01-10T00:49:59;1.82;62.72
75961;SHT30;64644;48.914;2.254;2024-01-10T00:52:24;1.83;62.75
75961;SHT30;64644;48.914;2.254;2024-01-10T00:54:49;1.82;62.70
75961;SHT30;64644;48.914;2.254;2024-01-10T00:57:15;1.82;62.70
75961;SHT30;64644;48.914;2.254;2024-01-10T00:59:40;1.80;62.65
75961;SHT30;64644;48.914;2.254;2024-01-10T01:02:06;1.77;62.70
75961;SHT30;64644;48.914;2.254;2024-01-10T01:04:31;1.77;62.73
75961;SHT30;64644;48.914;2.254;2024-01-10T01:06:56;1.77;62.74
75961;SHT30;64644;48.914;2.254;2024-01-10T01:09:22;1.77;62.79
75961;SHT30;64644;48.914;2.254;2024-01-10T01:11:47;1.76;62.87
75961;SHT30;64644;48.914;2.254;2024-01-10T01:14:12;1.79;62.92
75961;SHT30;64644;48.914;2.254;2024-01-10T01:16:38;1.82;62.97
75961;SHT30;64644;48.914;2.254;2024-01-10T01:19:03;1.83;62.97
75961;SHT30;64644;48.914;2.254;2024-01-10T01:21:28;1.82;63.00
75961;SHT30;64644;48.914;2.254;2024-01-10T01:23:54;1.83;63.02
75961;SHT30;64644;48.914;2.254;2024-01-10T01:26:20;1.85;63.04
75961;SHT30;64644;48.914;2.254;2024-01-10T01:28:45;1.86;63.08
75961;SHT30;64644;48.914;2.254;2024-01-10T01:31:10;1.90;63.08
75961;SHT30;64644;48.914;2.254;2024-01-10T01:33:36;1.87;63.05
75961;SHT30;64644;48.914;2.254;2024-01-10T01:36:01;1.89;63.00
75961;SHT30;64644;48.914;2.254;2024-01-10T01:38:26;1.90;63.00
75961;SHT30;64644;48.914;2.254;2024-01-10T01:40:52;1.85;62.92
75961;SHT30;64644;48.914;2.254;2024-01-10T01:43:22;1.87;62.94
75961;SHT30;64644;48.914;2.254;2024-01-10T01:45:51;1.86;62.93
75961;SHT30;64644;48.914;2.254;2024-01-10T01:48:16;1.83;62.96
75961;SHT30;64644;48.914;2.254;2024-01-10T01:50:42;1.85;63.06
75961;SHT30;64644;48.914;2.254;2024-01-10T01:53:07;1.87;63.05
75961;SHT30;64644;48.914;2.254;2024-01-10T01:55:33;1.86;63.11
75961;SHT30;64644;48.914;2.254;2024-01-10T01:57:59;1.90;63.13
75961;SHT30;64644;48.914;2.254;2024-01-10T02:00:25;1.90;63.15
75961;SHT30;64644;48.914;2.254;2024-01-10T02:02:51;1.90;63.12
75961;SHT30;64644;48.914;2.254;2024-01-10T02:05:17;1.93;63.10
75961;SHT30;64644;48.914;2.254;2024-01-10T02:07:43;1.94;63.10
75961;SHT30;64644;48.914;2.254;2024-01-10T02:10:08;1.92;63.09
75961;SHT30;64644;48.914;2.254;2024-01-10T02:12:34;1.92;63.05
75961;SHT30;64644;48.914;2.254;2024-01-10T02:15:00;1.92;63.12
75961;SHT30;64644;48.914;2.254;2024-01-10T02:17:25;1.92;63.18
75961;SHT30;64644;48.914;2.254;2024-01-10T02:20:10;1.93;63.24
75961;SHT30;64644;48.914;2.254;2024-01-10T02:22:36;1.94;63.22
75961;SHT30;64644;48.914;2.254;2024-01-10T02:25:02;1.97;63.25
75961;SHT30;64644;48.914;2.254;2024-01-10T02:27:28;1.97;63.25
75961;SHT30;64644;48.914;2.254;2024-01-10T02:29:54;2.02;63.24
75961;SHT30;64644;48.914;2.254;2024-01-10T02:32:20;2.02;63.19
75961;SHT30;64644;48.914;2.254;2024-01-10T02:34:45;2.06;63.18
75961;SHT30;64644;48.914;2.254;2024-01-10T02:37:11;2.07;63.14
75961;SHT30;64644;48.914;2.254;2024-01-10T02:39:36;2.09;63.13
75961;SHT30;64644;48.914;2.254;2024-01-10T02:42:01;2.13;63.03
75961;SHT30;64644;48.914;2.254;2024-01-10T02:44:27;2.13;62.98
75961;SHT30;64644;48.914;2.254;2024-01-10T02:46:53;2.13;62.95
75961;SHT30;64644;48.914;2.254;2024-01-10T02:49:18;2.09;62.94
75961;SHT30;64644;48.914;2.254;2024-01-10T02:51:44;2.11;62.97
75961;SHT30;64644;48.914;2.254;2024-01-10T02:54:09;2.13;62.93
75961;SHT30;64644;48.914;2.254;2024-01-10T02:56:34;2.11;62.97
75961;SHT30;64644;48.914;2.254;2024-01-10T02:59:00;2.10;62.95
75961;SHT30;64644;48.914;2.254;2024-01-10T03:01:25;2.14;62.95
75961;SHT30;64644;48.914;2.254;2024-01-10T03:03:50;2.15;62.93
75961;SHT30;64644;48.914;2.254;2024-01-10T03:06:16;2.17;62.91
75961;SHT30;64644;48.914;2.254;2024-01-10T03:08:41;2.18;62.85
75961;SHT30;64644;48.914;2.254;2024-01-10T03:11:06;2.20;62.84
75961;SHT30;64644;48.914;2.254;2024-01-10T03:13:32;2.17;62.75
75961;SHT30;64644;48.914;2.254;2024-01-10T03:15:58;2.17;62.73
75961;SHT30;64644;48.914;2.254;2024-01-10T03:18:24;2.17;62.70
75961;SHT30;64644;48.914;2.254;2024-01-10T03:20:49;2.14;62.63
75961;SHT30;64644;48.914;2.254;2024-01-10T03:23:14;2.15;62.62
75961;SHT30;64644;48.914;2.254;2024-01-10T03:25:40;2.17;62.64
75961;SHT30;64644;48.914;2.254;2024-01-10T03:28:05;2.15;62.70
75961;SHT30;64644;48.914;2.254;2024-01-10T03:30:30;2.17;62.66
75961;SHT30;64644;48.914;2.254;2024-01-10T03:32:56;2.18;62.62
75961;SHT30;64644;48.914;2.254;2024-01-10T03:35:21;2.18;62.54
75961;SHT30;64644;48.914;2.254;2024-01-10T03:37:46;2.20;62.51
75961;SHT30;64644;48.914;2.254;2024-01-10T03:40:12;2.17;62.56
75961;SHT30;64644;48.914;2.254;2024-01-10T03:42:37;2.20;62.54
75961;SHT30;64644;48.914;2.254;2024-01-10T03:45:04;2.21;62.48
75961;SHT30;64644;48.914;2.254;2024-01-10T03:47:30;2.20;62.43
75961;SHT30;64644;48.914;2.254;2024-01-10T03:49:55;2.20;62.40
75961;SHT30;64644;48.914;2.254;2024-01-10T03:52:21;2.21;62.36
75961;SHT30;64644;48.914;2.254;2024-01-10T03:54:46;2.22;62.34
75961;SHT30;64644;48.914;2.254;2024-01-10T03:57:12;2.22;62.34
75961;SHT30;64644;48.914;2.254;2024-01-10T03:59:37;2.27;62.30
75961;SHT30;64644;48.914;2.254;2024-01-10T04:02:03;2.22;62.26
75961;SHT30;64644;48.914;2.254;2024-01-10T04:04:29;2.22;62.24
75961;SHT30;64644;48.914;2.254;2024-01-10T04:06:54;2.21;62.19
75961;SHT30;64644;48.914;2.254;2024-01-10T04:09:19;2.18;62.17
75961;SHT30;64644;48.914;2.254;2024-01-10T04:11:45;2.18;62.23
75961;SHT30;64644;48.914;2.254;2024-01-10T04:14:10;2.15;62.19
75961;SHT30;64644;48.914;2.254;2024-01-10T04:16:36;2.17;62.21
75961;SHT30;64644;48.914;2.254;2024-01-10T04:19:01;2.15;62.20
75961;SHT30;64644;48.914;2.254;2024-01-10T04:21:26;2.17;62.25
75961;SHT30;64644;48.914;2.254;2024-01-10T04:23:52;2.17;62.25
75961;SHT30;64644;48.914;2.254;2024-01-10T04:26:17;2.20;62.24
75961;SHT30;64644;48.914;2.254;2024-01-10T04:28:43;2.20;62.20
75961;SHT30;64644;48.914;2.254;2024-01-10T04:31:08;2.21;62.17
75961;SHT30;64644;48.914;2.254;2024-01-10T04:33:34;2.21;62.15
75961;SHT30;64644;48.914;2.254;2024-01-10T04:35:59;2.20;62.15
75961;SHT30;64644;48.914;2.254;2024-01-10T04:38:25;2.21;62.11
75961;SHT30;64644;48.914;2.254;2024-01-10T04:40:52;2.18;62.17
75961;SHT30;64644;48.914;2.254;2024-01-10T04:43:17;2.21;62.18
75961;SHT30;64644;48.914;2.254;2024-01-10T04:45:42;2.25;62.20
75961;SHT30;64644;48.914;2.254;2024-01-10T04:48:08;2.21;62.15
75961;SHT30;64644;48.914;2.254;2024-01-10T04:50:34;2.21;62.15
75961;SHT30;64644;48.914;2.254;2024-01-10T04:53:00;2.22;62.17
75961;SHT30;64644;48.914;2.254;2024-01-10T04:55:25;2.24;62.21
75961;SHT30;64644;48.914;2.254;2024-01-10T04:57:51;2.28;62.23
75961;SHT30;64644;48.914;2.254;2024-01-10T05:00:16;2.30;62.17
75961;SHT30;64644;48.914;2.254;2024-01-10T05:02:41;2.31;62.14
75961;SHT30;64644;48.914;2.254;2024-01-10T05:05:07;2.31;62.11
75961;SHT30;64644;48.914;2.254;2024-01-10T05:07:32;2.30;62.07
75961;SHT30;64644;48.914;2.254;2024-01-10T05:09:58;2.30;62.04
75961;SHT30;64644;48.914;2.254;2024-01-10T05:12:23;2.28;61.97
75961;SHT30;64644;48.914;2.254;2024-01-10T05:14:48;2.30;61.99
75961;SHT30;64644;48.914;2.254;2024-01-10T05:17:14;2.30;61.95
75961;SHT30;64644;48.914;2.254;2024-01-10T05:19:39;2.30;61.92
75961;SHT30;64644;48.914;2.254;2024-01-10T05:22:05;2.28;61.99
75961;SHT30;64644;48.914;2.254;2024-01-10T05:24:30;2.30;61.97
75961;SHT30;64644;48.914;2.254;2024-01-10T05:26:56;2.27;61.93
75961;SHT30;64644;48.914;2.254;2024-01-10T05:29:22;2.25;61.97
75961;SHT30;64644;48.914;2.254;2024-01-10T05:31:49;2.25;61.97
75961;SHT30;64644;48.914;2.254;2024-01-10T05:34:14;2.24;61.92
75961;SHT30;64644;48.914;2.254;2024-01-10T05:36:39;2.24;61.87
75961;SHT30;64644;48.914;2.254;2024-01-10T05:39:05;2.25;61.84
75961;SHT30;64644;48.914;2.254;2024-01-10T05:41:30;2.27;61.80
75961;SHT30;64644;48.914;2.254;2024-01-10T05:43:56;2.22;61.83
75961;SHT30;64644;48.914;2.254;2024-01-10T05:46:21;2.27;61.84
75961;SHT30;64644;48.914;2.254;2024-01-10T05:48:46;2.30;61.88
75961;SHT30;64644;48.914;2.254;2024-01-10T05:51:13;2.30;61.84
75961;SHT30;64644;48.914;2.254;2024-01-10T05:53:38;2.30;61.80
75961;SHT30;64644;48.914;2.254;2024-01-10T05:56:05;2.31;61.75
75961;SHT30;64644;48.914;2.254;2024-01-10T05:58:31;2.32;61.78
75961;SHT30;64644;48.914;2.254;2024-01-10T06:00:56;2.30;61.79
75961;SHT30;64644;48.914;2.254;2024-01-10T06:03:21;2.34;61.76
75961;SHT30;64644;48.914;2.254;2024-01-10T06:05:47;2.38;61.72
75961;SHT30;64644;48.914;2.254;2024-01-10T06:08:12;2.41;61.69
75961;SHT30;64644;48.914;2.254;2024-01-10T06:10:39;2.42;61.68
75961;SHT30;64644;48.914;2.254;2024-01-10T06:13:04;2.45;61.62
75961;SHT30;64644;48.914;2.254;2024-01-10T06:15:30;2.48;61.55
75961;SHT30;64644;48.914;2.254;2024-01-10T06:17:55;2.50;61.54
75961;SHT30;64644;48.914;2.254;2024-01-10T06:20:20;2.50;61.43
75961;SHT30;64644;48.914;2.254;2024-01-10T06:22:46;2.52;61.29
75961;SHT30;64644;48.914;2.254;2024-01-10T06:25:12;2.49;61.19
75961;SHT30;64644;48.914;2.254;2024-01-10T06:27:37;2.52;61.13
75961;SHT30;64644;48.914;2.254;2024-01-10T06:30:03;2.49;61.07
75961;SHT30;64644;48.914;2.254;2024-01-10T06:32:28;2.52;61.01
75961;SHT30;64644;48.914;2.254;2024-01-10T06:34:53;2.50;60.99
75961;SHT30;64644;48.914;2.254;2024-01-10T06:37:19;2.49;60.86
75961;SHT30;64644;48.914;2.254;2024-01-10T06:39:44;2.50;60.81
75961;SHT30;64644;48.914;2.254;2024-01-10T06:42:09;2.48;60.66
75961;SHT30;64644;48.914;2.254;2024-01-10T06:44:37;2.48;60.55
75961;SHT30;64644;48.914;2.254;2024-01-10T06:47:02;2.49;60.46
75961;SHT30;64644;48.914;2.254;2024-01-10T06:49:29;2.49;60.43
75961;SHT30;64644;48.914;2.254;2024-01-10T06:51:54;2.52;60.42
75961;SHT30;64644;48.914;2.254;2024-01-10T06:54:19;2.53;60.46
75961;SHT30;64644;48.914;2.254;2024-01-10T06:56:45;2.55;60.48
75961;SHT30;64644;48.914;2.254;2024-01-10T06:59:10;2.56;60.51
75961;SHT30;64644;48.914;2.254;2024-01-10T07:01:36;2.56;60.49
75961;SHT30;64644;48.914;2.254;2024-01-10T07:04:01;2.56;60.48
75961;SHT30;64644;48.914;2.254;2024-01-10T07:06:27;2.53;60.47
75961;SHT30;64644;48.914;2.254;2024-01-10T07:08:52;2.53;60.48
75961;SHT30;64644;48.914;2.254;2024-01-10T07:11:18;2.55;60.41
75961;SHT30;64644;48.914;2.254;2024-01-10T07:13:45;2.56;60.40
75961;SHT30;64644;48.914;2.254;2024-01-10T07:16:10;2.55;60.39
75961;SHT30;64644;48.914;2.254;2024-01-10T07:18:36;2.55;60.36
75961;SHT30;64644;48.914;2.254;2024-01-10T07:21:01;2.59;60.39
75961;SHT30;64644;48.914;2.254;2024-01-10T07:23:26;2.59;60.38
75961;SHT30;64644;48.914;2.254;2024-01-10T07:25:52;2.58;60.35
75961;SHT30;64644;48.914;2.254;2024-01-10T07:28:18;2.59;60.33
75961;SHT30;64644;48.914;2.254;2024-01-10T07:30:44;2.59;60.28
75961;SHT30;64644;48.914;2.254;2024-01-10T07:33:10;2.62;60.24
75961;SHT30;64644;48.914;2.254;2024-01-10T07:35:36;2.62;60.13
75961;SHT30;64644;48.914;2.254;2024-01-10T07:38:03;2.62;60.04
75961;SHT30;64644;48.914;2.254;2024-01-10T07:40:28;2.63;60.00
75961;SHT30;64644;48.914;2.254;2024-01-10T07:42:54;2.60;59.94
75961;SHT30;64644;48.914;2.254;2024-01-10T07:45:20;2.62;59.84
75961;SHT30;64644;48.914;2.254;2024-01-10T07:47:46;2.63;59.71
75961;SHT30;64644;48.914;2.254;2024-01-10T07:50:11;2.65;59.65
75961;SHT30;64644;48.914;2.254;2024-01-10T07:52:40;2.63;59.63
75961;SHT30;64644;48.914;2.254;2024-01-10T07:55:06;2.66;59.57
75961;SHT30;64644;48.914;2.254;2024-01-10T07:57:32;2.67;59.52
75961;SHT30;64644;48.914;2.254;2024-01-10T07:59:59;2.69;59.48
75961;SHT30;64644;48.914;2.254;2024-01-10T08:02:24;2.71;59.49
75961;SHT30;64644;48.914;2.254;2024-01-10T08:04:49;2.69;59.55
75961;SHT30;64644;48.914;2.254;2024-01-10T08:07:15;2.73;59.59
75961;SHT30;64644;48.914;2.254;2024-01-10T08:09:40;2.75;59.65
75961;SHT30;64644;48.914;2.254;2024-01-10T08:12:06;2.73;59.71
75961;SHT30;64644;48.914;2.254;2024-01-10T08:14:32;2.72;59.76
75961;SHT30;64644;48.914;2.254;2024-01-10T08:16:57;2.71;59.81
75961;SHT30;64644;48.914;2.254;2024-01-10T08:19:26;2.76;59.82
75961;SHT30;64644;48.914;2.254;2024-01-10T08:21:55;2.76;59.88
75961;SHT30;64644;48.914;2.254;2024-01-10T08:24:21;2.77;59.82
75961;SHT30;64644;48.914;2.254;2024-01-10T08:26:47;2.75;59.73
75961;SHT30;64644;48.914;2.254;2024-01-10T08:29:17;2.76;59.72
75961;SHT30;64644;48.914;2.254;2024-01-10T08:31:44;2.72;59.61
75961;SHT30;64644;48.914;2.254;2024-01-10T08:34:09;2.73;59.56
75961;SHT30;64644;48.914;2.254;2024-01-10T08:36:34;2.75;59.49
75961;SHT30;64644;48.914;2.254;2024-01-10T08:39:00;2.77;59.41
75961;SHT30;64644;48.914;2.254;2024-01-10T08:41:25;2.82;59.40
75961;SHT30;64644;48.914;2.254;2024-01-10T08:43:51;2.82;59.36
75961;SHT30;64644;48.914;2.254;2024-01-10T08:46:16;2.80;59.30
75961;SHT30;64644;48.914;2.254;2024-01-10T08:48:41;2.77;59.29
75961;SHT30;64644;48.914;2.254;2024-01-10T08:51:07;2.77;59.30
75961;SHT30;64644;48.914;2.254;2024-01-10T08:53:34;2.79;59.35
75961;SHT30;64644;48.914;2.254;2024-01-10T08:56:00;2.83;59.46
75961;SHT30;64644;48.914;2.254;2024-01-10T08:58:26;2.86;59.50
75961;SHT30;64644;48.914;2.254;2024-01-10T09:00:51;2.89;59.53
75961;SHT30;64644;48.914;2.254;2024-01-10T09:03:17;2.87;59.57
75961;SHT30;64644;48.914;2.254;2024-01-10T09:05:42;2.89;59.62
75961;SHT30;64644;48.914;2.254;2024-01-10T09:08:07;2.86;59.64
75961;SHT30;64644;48.914;2.254;2024-01-10T09:10:33;2.87;59.71
75961;SHT30;64644;48.914;2.254;2024-01-10T09:12:58;2.89;59.71
75961;SHT30;64644;48.914;2.254;2024-01-10T09:15:24;2.93;59.70
75961;SHT30;64644;48.914;2.254;2024-01-10T09:17:50;2.94;59.74
75961;SHT30;64644;48.914;2.254;2024-01-10T09:20:17;2.96;59.73
75961;SHT30;64644;48.914;2.254;2024-01-10T09:22:43;2.96;59.70
75961;SHT30;64644;48.914;2.254;2024-01-10T09:25:09;3.00;59.71
75961;SHT30;64644;48.914;2.254;2024-01-10T09:27:38;3.01;59.62
75961;SHT30;64644;48.914;2.254;2024-01-10T09:30:04;3.04;59.53
75961;SHT30;64644;48.914;2.254;2024-01-10T09:32:33;3.04;59.49
75961;SHT30;64644;48.914;2.254;2024-01-10T09:34:59;3.14;59.43
75961;SHT30;64644;48.914;2.254;2024-01-10T09:37:25;3.14;59.39
75961;SHT30;64644;48.914;2.254;2024-01-10T09:39:50;3.15;59.36
75961;SHT30;64644;48.914;2.254;2024-01-10T09:42:15;3.18;59.30
75961;SHT30;64644;48.914;2.254;2024-01-10T09:44:41;3.17;59.24
75961;SHT30;64644;48.914;2.254;2024-01-10T09:47:08;3.21;59.09
75961;SHT30;64644;48.914;2.254;2024-01-10T09:49:34;3.20;59.01
75961;SHT30;64644;48.914;2.254;2024-01-10T09:52:04;3.20;58.98
75961;SHT30;64644;48.914;2.254;2024-01-10T09:54:31;3.21;58.94
75961;SHT30;64644;48.914;2.254;2024-01-10T09:56:57;3.22;58.86
75961;SHT30;64644;48.914;2.254;2024-01-10T09:59:22;3.24;58.78
75961;SHT30;64644;48.914;2.254;2024-01-10T10:01:48;3.25;58.71
75961;SHT30;64644;48.914;2.254;2024-01-10T10:04:16;3.25;58.62
75961;SHT30;64644;48.914;2.254;2024-01-10T10:06:43;3.28;58.59
75961;SHT30;64644;48.914;2.254;2024-01-10T10:09:08;3.29;58.58
75961;SHT30;64644;48.914;2.254;2024-01-10T10:11:35;3.29;58.63
75961;SHT30;64644;48.914;2.254;2024-01-10T10:14:18;3.29;58.69
75961;SHT30;64644;48.914;2.254;2024-01-10T10:16:43;3.27;58.58
75961;SHT30;64644;48.914;2.254;2024-01-10T10:19:09;3.28;58.54
75961;SHT30;64644;48.914;2.254;2024-01-10T10:21:36;3.32;58.48
75961;SHT30;64644;48.914;2.254;2024-01-10T10:24:02;3.36;58.46
75961;SHT30;64644;48.914;2.254;2024-01-10T10:26:32;3.40;58.42
75961;SHT30;64644;48.914;2.254;2024-01-10T10:28:57;3.45;58.38
75961;SHT30;64644;48.914;2.254;2024-01-10T10:31:23;3.48;58.27
75961;SHT30;64644;48.914;2.254;2024-01-10T10:33:50;3.51;58.19
75961;SHT30;64644;48.914;2.254;2024-01-10T10:36:16;3.52;58.23
75961;SHT30;64644;48.914;2.254;2024-01-10T10:38:42;3.52;58.21
75961;SHT30;64644;48.914;2.254;2024-01-10T10:41:08;3.53;58.12
75961;SHT30;64644;48.914;2.254;2024-01-10T10:43:36;3.51;58.04
75961;SHT30;64644;48.914;2.254;2024-01-10T10:46:03;3.55;58.01
75961;SHT30;64644;48.914;2.254;2024-01-10T10:48:32;3.56;57.98
75961;SHT30;64644;48.914;2.254;2024-01-10T10:51:20;3.60;57.93
75961;SHT30;64644;48.914;2.254;2024-01-10T10:53:50;3.63;57.86
75961;SHT30;64644;48.914;2.254;2024-01-10T10:56:16;3.66;57.86
75961;SHT30;64644;48.914;2.254;2024-01-10T10:58:43;3.67;57.81
75961;SHT30;64644;48.914;2.254;2024-01-10T11:01:12;3.66;57.83
75961;SHT30;64644;48.914;2.254;2024-01-10T11:03:39;3.70;57.67
75961;SHT30;64644;48.914;2.254;2024-01-10T11:06:06;3.76;57.56
75961;SHT30;64644;48.914;2.254;2024-01-10T11:08:59;3.80;57.53
75961;SHT30;64644;48.914;2.254;2024-01-10T11:14:46;3.76;57.47
75961;SHT30;64644;48.914;2.254;2024-01-10T11:25:40;3.87;57.27
75961;SHT30;64644;48.914;2.254;2024-01-10T11:28:06;3.91;57.23
75961;SHT30;64644;48.914;2.254;2024-01-10T11:30:38;3.98;57.22
75961;SHT30;64644;48.914;2.254;2024-01-10T11:33:30;4.02;57.13
75961;SHT30;64644;48.914;2.254;2024-01-10T11:36:25;4.11;57.10
75961;SHT30;64644;48.914;2.254;2024-01-10T11:46:34;4.54;57.04
75961;SHT30;64644;48.914;2.254;2024-01-10T11:48:59;4.92;57.10
75961;SHT30;64644;48.914;2.254;2024-01-10T11:51:25;5.38;56.98
75961;SHT30;64644;48.914;2.254;2024-01-10T11:53:50;5.84;56.77
75961;SHT30;64644;48.914;2.254;2024-01-10T11:56:18;6.32;56.26
75961;SHT30;64644;48.914;2.254;2024-01-10T11:59:02;6.77;55.74
75961;SHT30;64644;48.914;2.254;2024-01-10T12:01:29;7.24;55.14
75961;SHT30;64644;48.914;2.254;2024-01-10T12:03:55;7.39;54.42
75961;SHT30;64644;48.914;2.254;2024-01-10T12:06:21;7.44;53.76
75961;SHT30;64644;48.914;2.254;2024-01-10T12:08:48;7.57;53.38
75961;SHT30;64644;48.914;2.254;2024-01-10T12:11:13;7.77;53.08
75961;SHT30;64644;48.914;2.254;2024-01-10T12:13:38;8.03;52.84
75961;SHT30;64644;48.914;2.254;2024-01-10T12:16:05;8.05;52.43
75961;SHT30;64644;48.914;2.254;2024-01-10T12:18:30;8.02;52.08
75961;SHT30;64644;48.914;2.254;2024-01-10T12:20:55;8.03;51.86
75961;SHT30;64644;48.914;2.254;2024-01-10T12:23:21;8.10;51.74
75961;SHT30;64644;48.914;2.254;2024-01-10T12:25:48;8.22;51.42
75961;SHT30;64644;48.914;2.254;2024-01-10T12:28:17;8.37;51.28
75961;SHT30;64644;48.914;2.254;2024-01-10T12:30:42;8.47;50.95
75961;SHT30;64644;48.914;2.254;2024-01-10T12:33:10;8.56;50.60
75961;SHT30;64644;48.914;2.254;2024-01-10T12:35:35;8.68;50.32
75961;SHT30;64644;48.914;2.254;2024-01-10T12:38:02;8.76;50.03
75961;SHT30;64644;48.914;2.254;2024-01-10T12:40:28;8.79;49.80
75961;SHT30;64644;48.914;2.254;2024-01-10T12:43:06;8.78;49.46
75961;SHT30;64644;48.914;2.254;2024-01-10T12:45:31;8.76;49.21
75961;SHT30;64644;48.914;2.254;2024-01-10T12:47:57;8.86;49.10
75961;SHT30;64644;48.914;2.254;2024-01-10T12:50:22;8.96;48.97
75961;SHT30;64644;48.914;2.254;2024-01-10T12:52:50;9.05;48.83
75961;SHT30;64644;48.914;2.254;2024-01-10T12:55:15;9.09;48.62
75961;SHT30;64644;48.914;2.254;2024-01-10T12:57:42;9.20;48.53
75961;SHT30;64644;48.914;2.254;2024-01-10T13:00:08;9.17;48.42
75961;SHT30;64644;48.914;2.254;2024-01-10T13:02:35;9.06;47.91
75961;SHT30;64644;48.914;2.254;2024-01-10T13:05:06;8.85;47.64
75961;SHT30;64644;48.914;2.254;2024-01-10T13:07:35;8.57;47.65
75961;SHT30;64644;48.914;2.254;2024-01-10T13:10:00;8.22;47.62
75961;SHT30;64644;48.914;2.254;2024-01-10T13:12:25;7.94;47.68
75961;SHT30;64644;48.914;2.254;2024-01-10T13:14:51;7.70;47.84
75961;SHT30;64644;48.914;2.254;2024-01-10T13:17:16;7.33;48.08
75961;SHT30;64644;48.914;2.254;2024-01-10T13:19:41;7.04;48.32
75961;SHT30;64644;48.914;2.254;2024-01-10T13:22:10;6.73;48.42
75961;SHT30;64644;48.914;2.254;2024-01-10T13:24:39;6.57;48.52
75961;SHT30;64644;48.914;2.254;2024-01-10T13:27:04;6.46;48.74
75961;SHT30;64644;48.914;2.254;2024-01-10T13:29:29;6.30;48.89
75961;SHT30;64644;48.914;2.254;2024-01-10T13:31:55;6.16;49.27
75961;SHT30;64644;48.914;2.254;2024-01-10T13:34:20;6.08;49.38
75961;SHT30;64644;48.914;2.254;2024-01-10T13:36:45;5.95;49.60
75961;SHT30;64644;48.914;2.254;2024-01-10T13:39:11;5.86;49.81
75961;SHT30;64644;48.914;2.254;2024-01-10T13:41:40;5.74;49.90
75961;SHT30;64644;48.914;2.254;2024-01-10T13:44:05;5.67;49.91
75961;SHT30;64644;48.914;2.254;2024-01-10T13:46:31;5.61;50.08
75961;SHT30;64644;48.914;2.254;2024-01-10T13:48:56;5.52;50.25
75961;SHT30;64644;48.914;2.254;2024-01-10T13:51:21;5.47;50.35
75961;SHT30;64644;48.914;2.254;2024-01-10T13:53:47;5.40;50.43
75961;SHT30;64644;48.914;2.254;2024-01-10T13:56:12;5.39;50.57
75961;SHT30;64644;48.914;2.254;2024-01-10T13:58:37;5.26;50.68
75961;SHT30;64644;48.914;2.254;2024-01-10T14:01:03;5.22;50.76
75961;SHT30;64644;48.914;2.254;2024-01-10T14:03:29;5.16;50.87
75961;SHT30;64644;48.914;2.254;2024-01-10T14:05:54;5.12;50.95
75961;SHT30;64644;48.914;2.254;2024-01-10T14:08:19;5.09;51.09
75961;SHT30;64644;48.914;2.254;2024-01-10T14:10:45;5.07;51.32
75961;SHT30;64644;48.914;2.254;2024-01-10T14:13:10;5.02;51.44
75961;SHT30;64644;48.914;2.254;2024-01-10T14:15:35;4.97;51.54
75961;SHT30;64644;48.914;2.254;2024-01-10T14:18:01;4.95;51.62
75961;SHT30;64644;48.914;2.254;2024-01-10T14:20:26;4.94;51.78
75961;SHT30;64644;48.914;2.254;2024-01-10T14:22:51;4.88;51.84
75961;SHT30;64644;48.914;2.254;2024-01-10T14:25:17;4.84;51.89
75961;SHT30;64644;48.914;2.254;2024-01-10T14:27:42;4.83;51.99
75961;SHT30;64644;48.914;2.254;2024-01-10T14:30:08;4.79;52.01
75961;SHT30;64644;48.914;2.254;2024-01-10T14:32:36;4.79;52.10
75961;SHT30;64644;48.914;2.254;2024-01-10T14:35:03;4.74;52.17
75961;SHT30;64644;48.914;2.254;2024-01-10T14:37:30;4.76;52.22
75961;SHT30;64644;48.914;2.254;2024-01-10T14:39:55;4.76;52.39
75961;SHT30;64644;48.914;2.254;2024-01-10T14:42:21;4.73;52.44
75961;SHT30;64644;48.914;2.254;2024-01-10T14:44:46;4.74;52.52
75961;SHT30;64644;48.914;2.254;2024-01-10T14:47:11;4.69;52.65
75961;SHT30;64644;48.914;2.254;2024-01-10T14:49:37;4.64;52.64
75961;SHT30;64644;48.914;2.254;2024-01-10T14:52:02;4.62;52.75
75961;SHT30;64644;48.914;2.254;2024-01-10T14:54:28;4.60;52.78
75961;SHT30;64644;48.914;2.254;2024-01-10T14:56:53;4.60;52.87
75961;SHT30;64644;48.914;2.254;2024-01-10T14:59:19;4.54;52.93
75961;SHT30;64644;48.914;2.254;2024-01-10T15:01:45;4.56;53.03
75961;SHT30;64644;48.914;2.254;2024-01-10T15:04:12;4.53;53.18
75961;SHT30;64644;48.914;2.254;2024-01-10T15:06:45;4.52;53.20
75961;SHT30;64644;48.914;2.254;2024-01-10T15:09:11;4.52;53.34
75961;SHT30;64644;48.914;2.254;2024-01-10T15:11:38;4.50;53.46
75961;SHT30;64644;48.914;2.254;2024-01-10T15:14:04;4.45;53.52
75961;SHT30;64644;48.914;2.254;2024-01-10T15:16:29;4.42;53.61
75961;SHT30;64644;48.914;2.254;2024-01-10T15:18:54;4.41;53.68
75961;SHT30;64644;48.914;2.254;2024-01-10T15:21:19;4.45;53.70
75961;SHT30;64644;48.914;2.254;2024-01-10T15:23:45;4.43;53.73
75961;SHT30;64644;48.914;2.254;2024-01-10T15:26:17;4.42;53.78
75961;SHT30;64644;48.914;2.254;2024-01-10T15:28:43;4.41;53.80
75961;SHT30;64644;48.914;2.254;2024-01-10T15:31:18;4.39;53.88
75961;SHT30;64644;48.914;2.254;2024-01-10T15:33:44;4.35;53.96
75961;SHT30;64644;48.914;2.254;2024-01-10T15:36:09;4.31;54.07
75961;SHT30;64644;48.914;2.254;2024-01-10T15:38:39;4.32;54.12
75961;SHT30;64644;48.914;2.254;2024-01-10T15:41:08;4.29;54.11
75961;SHT30;64644;48.914;2.254;2024-01-10T15:43:34;4.28;54.17
75961;SHT30;64644;48.914;2.254;2024-01-10T15:46:00;4.24;54.16
75961;SHT30;64644;48.914;2.254;2024-01-10T15:48:25;4.19;54.25
75961;SHT30;64644;48.914;2.254;2024-01-10T15:50:52;4.21;54.34
75961;SHT30;64644;48.914;2.254;2024-01-10T15:53:18;4.21;54.35
75961;SHT30;64644;48.914;2.254;2024-01-10T15:55:44;4.21;54.47
75961;SHT30;64644;48.914;2.254;2024-01-10T15:58:09;4.18;54.52